createdAt,value
2022-08-26T00:01:58.612Z,100002.16
2022-08-26T00:05:04.135Z,100000.50
2022-08-26T00:08:08.107Z,100002.59
2022-08-26T00:11:15.961Z,100001.50
2022-08-26T00:14:30.785Z,100004.84
2022-08-26T00:17:34.262Z,100012.44
2022-08-26T00:20:36.990Z,100007.63
2022-08-26T00:23:40.622Z,99991.72
2022-08-26T00:26:43.873Z,100002.06
2022-08-26T00:29:47.571Z,100012.84
2022-08-26T00:32:51.283Z,100009.84
2022-08-26T00:35:55.347Z,100006.09
2022-08-26T00:38:58.571Z,100006.19
2022-08-26T00:42:01.963Z,100000.72
2022-08-26T00:45:11.549Z,100001.50
2022-08-26T00:48:18.529Z,99996.41
2022-08-26T00:51:25.110Z,99997.50
2022-08-26T00:54:40.307Z,99994.81
2022-08-26T00:57:48.458Z,99991.06
2022-08-26T01:00:52.833Z,100003.97
2022-08-26T01:03:56.088Z,99991.88
2022-08-26T01:07:00.105Z,99995.31
2022-08-26T01:10:10.380Z,99998.00
2022-08-26T01:13:14.237Z,100000.09
2022-08-26T01:16:17.186Z,99999.31
2022-08-26T01:19:29.921Z,100004.19
2022-08-26T01:22:57.380Z,100008.19
2022-08-26T01:26:06.541Z,100014.22
2022-08-26T01:29:13.331Z,99998.12
2022-08-26T01:32:20.155Z,100001.97
2022-08-26T01:35:22.907Z,100014.22
2022-08-26T01:38:27.784Z,100009.97
2022-08-26T01:41:35.488Z,100001.56
2022-08-26T01:44:47.431Z,99999.78
2022-08-26T01:47:57.055Z,99997.44
2022-08-26T01:51:03.468Z,100004.97
2022-08-26T01:54:07.971Z,99991.25
2022-08-26T01:57:18.543Z,99994.37
2022-08-26T02:00:23.041Z,99984.88
2022-08-26T02:03:27.710Z,99998.91
2022-08-26T02:06:31.934Z,99998.47
2022-08-26T02:09:41.242Z,99991.78
2022-08-26T02:12:44.566Z,99988.22
2022-08-26T02:15:48.120Z,99982.75
2022-08-26T02:18:52.844Z,99979.06
2022-08-26T02:21:59.235Z,99987.19
2022-08-26T02:25:32.404Z,99986.06
2022-08-26T02:28:47.459Z,99979.69
2022-08-26T02:31:51.935Z,99980.63
2022-08-26T02:34:54.652Z,99988.28
2022-08-26T02:37:58.012Z,99985.94
2022-08-26T02:41:00.749Z,99982.38
2022-08-26T02:44:04.463Z,99987.28
2022-08-26T02:47:08.121Z,99973.94
2022-08-26T02:50:11.515Z,99986.03
2022-08-26T02:53:15.149Z,99986.84
2022-08-26T02:56:18.426Z,99992.13
2022-08-26T02:59:24.323Z,99999.78
2022-08-26T03:02:28.884Z,100001.00
2022-08-26T03:05:31.500Z,99986.78
2022-08-26T03:08:34.609Z,100001.06
2022-08-26T03:11:37.819Z,99996.75
2022-08-26T03:14:40.772Z,99976.53
2022-08-26T03:17:44.819Z,99991.56
2022-08-26T03:20:47.797Z,99968.66
2022-08-26T03:23:51.495Z,99976.88
2022-08-26T03:26:54.758Z,99971.50
2022-08-26T03:30:17.076Z,99986.06
2022-08-26T03:33:20.226Z,99978.81
2022-08-26T03:36:23.024Z,99987.28
2022-08-26T03:39:27.578Z,99982.44
2022-08-26T03:42:36.582Z,99987.47
2022-08-26T03:45:40.909Z,99994.25
2022-08-26T03:48:43.973Z,99991.75
2022-08-26T03:51:47.744Z,99992.78
2022-08-26T03:54:50.773Z,99990.28
2022-08-26T03:57:53.805Z,99995.84
2022-08-26T04:00:56.443Z,99991.81
2022-08-26T04:04:00.524Z,99994.59
2022-08-26T04:07:04.058Z,99995.66
2022-08-26T04:10:08.088Z,99999.28
2022-08-26T04:13:12.615Z,99995.97
2022-08-26T04:16:17.486Z,99992.72
2022-08-26T04:19:21.210Z,99994.44
2022-08-26T04:22:25.060Z,99994.25
2022-08-26T04:25:27.997Z,99996.88
2022-08-26T04:28:31.620Z,99984.69
2022-08-26T04:31:35.841Z,99991.63
2022-08-26T05:01:45.223Z,100004.03
2022-08-26T05:04:48.473Z,100002.72
2022-08-26T05:07:54.504Z,100009.31
2022-08-26T05:10:58.351Z,99990.53
2022-08-26T05:14:02.305Z,100001.56
2022-08-26T05:17:05.521Z,100001.12
2022-08-26T05:20:09.858Z,100014.41
2022-08-26T05:23:15.007Z,100004.62
2022-08-26T05:26:22.978Z,100007.84
2022-08-26T05:29:26.223Z,100000.84
2022-08-26T05:32:28.956Z,100005.31
2022-08-26T05:35:34.181Z,100009.63
2022-08-26T05:38:37.008Z,100014.53
2022-08-26T05:41:42.066Z,100009.59
2022-08-26T05:44:55.557Z,100013.06
2022-08-26T05:48:00.623Z,100007.91
2022-08-26T05:51:05.810Z,100005.12
2022-08-26T05:54:10.477Z,100009.63
2022-08-26T05:57:13.971Z,100016.41
2022-08-26T06:00:16.871Z,100013.09
2022-08-26T06:03:19.778Z,100019.56
2022-08-26T06:06:34.820Z,100008.81
2022-08-26T06:09:38.616Z,100014.00
2022-08-26T06:12:41.448Z,100019.53
2022-08-26T06:15:46.489Z,100026.56
2022-08-26T06:18:51.061Z,100018.97
2022-08-26T06:21:55.058Z,100020.13
2022-08-26T06:25:15.992Z,100024.19
2022-08-26T06:28:18.948Z,100027.44
2022-08-26T06:31:23.019Z,100028.28
2022-08-26T06:34:30.900Z,100038.53
2022-08-26T06:37:33.597Z,100029.69
2022-08-26T06:40:43.330Z,100032.00
2022-08-26T06:43:47.548Z,100028.72
2022-08-26T06:46:51.477Z,100033.56
2022-08-26T06:49:54.256Z,100022.78
2022-08-26T06:52:57.230Z,100027.59
2022-08-26T06:56:05.106Z,100036.09
2022-08-26T06:59:08.990Z,100042.12
2022-08-26T07:02:13.372Z,100036.31
2022-08-26T07:05:17.523Z,100048.00
2022-08-26T07:08:22.396Z,100044.03
2022-08-26T07:11:25.343Z,100036.78
2022-08-26T07:14:28.506Z,100030.34
2022-08-26T07:17:31.512Z,100042.72
2022-08-26T07:20:40.272Z,100045.81
2022-08-26T07:23:45.428Z,100041.41
2022-08-26T07:26:49.516Z,100043.84
2022-08-26T07:29:57.199Z,100038.94
2022-08-26T07:33:01.797Z,100027.66
2022-08-26T07:36:08.273Z,100032.09
2022-08-26T07:39:18.960Z,100031.44
2022-08-26T07:42:22.104Z,100006.63
2022-08-26T07:45:24.889Z,100031.16
2022-08-26T07:48:50.301Z,100027.78
2022-08-26T07:51:59.553Z,100026.09
2022-08-26T07:55:03.161Z,100040.22
2022-08-26T07:58:06.572Z,100025.88
2022-08-26T08:01:30.795Z,99984.91
2022-08-26T08:05:21.859Z,100008.50
2022-08-26T08:08:27.579Z,100028.00
2022-08-26T08:11:32.498Z,100018.59
2022-08-26T08:14:37.257Z,100010.69
2022-08-26T08:17:42.924Z,100003.63
2022-08-26T08:21:04.610Z,100023.47
2022-08-26T08:24:08.136Z,100029.94
2022-08-26T08:27:11.300Z,100029.75
2022-08-26T08:30:20.805Z,100028.06
2022-08-26T08:33:26.544Z,100020.69
2022-08-26T08:36:35.863Z,100018.22
2022-08-26T08:39:39.075Z,100019.59
2022-08-26T08:43:06.241Z,100011.72
2022-08-26T08:46:17.331Z,100015.59
2022-08-26T08:49:25.992Z,100016.44
2022-08-26T08:52:35.667Z,100020.09
2022-08-26T08:56:08.052Z,100008.03
2022-08-26T08:59:17.988Z,100008.12
2022-08-26T09:02:34.667Z,100004.31
2022-08-26T09:05:48.513Z,100003.44
2022-08-26T09:08:52.212Z,100004.62
2022-08-26T09:12:01.741Z,99998.91
2022-08-26T09:15:30.394Z,99999.03
2022-08-26T09:18:42.561Z,100004.50
2022-08-26T09:21:56.926Z,100000.97
2022-08-26T09:25:01.528Z,100005.66
2022-08-26T09:28:15.806Z,100001.94
2022-08-26T09:31:27.498Z,99999.13
2022-08-26T09:34:31.251Z,99995.03
2022-08-26T09:41:05.156Z,99988.78
2022-08-26T09:44:18.134Z,99975.41
2022-08-26T09:47:26.007Z,99978.25
2022-08-26T09:50:36.230Z,99995.97
2022-08-26T09:53:59.770Z,99975.41
2022-08-26T09:57:18.995Z,99981.84
2022-08-26T10:00:26.798Z,99973.38
2022-08-26T10:03:36.710Z,99972.63
2022-08-26T10:07:01.520Z,99978.25
2022-08-26T10:10:09.366Z,99978.75
2022-08-26T10:13:19.595Z,99957.94
2022-08-26T10:16:29.667Z,99974.34
2022-08-26T10:19:57.033Z,99967.16
2022-08-26T10:23:12.705Z,99966.56
2022-08-26T10:26:20.948Z,99961.47
2022-08-26T10:29:34.268Z,99959.41
2022-08-26T10:32:44.335Z,99957.25
2022-08-26T10:35:53.654Z,99957.66
2022-08-26T10:38:59.275Z,99951.28
2022-08-26T10:42:09.918Z,99952.06
2022-08-26T10:45:20.559Z,99954.09
2022-08-26T10:48:24.557Z,99946.41
2022-08-26T10:51:35.604Z,99944.94
2022-08-26T10:55:03.508Z,99944.06
2022-08-26T10:58:27.672Z,99941.22
2022-08-26T11:01:43.025Z,99935.28
2022-08-26T11:05:03.547Z,99931.03
2022-08-26T11:08:21.720Z,99918.75
2022-08-26T11:11:39.727Z,99920.13
2022-08-26T11:14:58.600Z,99924.22
2022-08-26T11:18:10.953Z,99916.97
2022-08-26T11:21:51.796Z,99916.06
2022-08-26T11:24:57.218Z,99919.19
2022-08-26T11:28:02.645Z,99922.00
2022-08-26T11:31:10.076Z,99915.47
2022-08-26T11:34:14.270Z,99918.19
2022-08-26T11:37:18.094Z,99912.72
2022-08-26T11:40:25.118Z,99916.28
2022-08-26T11:43:29.792Z,99904.97
2022-08-26T11:46:37.511Z,99905.00
2022-08-26T11:49:40.212Z,99907.31
2022-08-26T11:53:06.328Z,99904.78
2022-08-26T11:56:27.072Z,99896.47
2022-08-26T11:59:39.079Z,99886.37
2022-08-26T12:02:42.883Z,99886.53
2022-08-26T12:05:49.650Z,99883.22
2022-08-26T12:08:55.501Z,99884.72
2022-08-26T12:12:21.836Z,99876.09
2022-08-26T12:15:25.440Z,99875.19
2022-08-26T12:18:37.866Z,99862.84
2022-08-26T12:21:40.523Z,99873.63
2022-08-26T12:24:51.385Z,99864.87
2022-08-26T12:27:54.279Z,99847.44
2022-08-26T12:31:02.762Z,99856.16
2022-08-26T12:34:17.367Z,99850.59
2022-08-26T12:37:21.436Z,99850.38
2022-08-26T12:40:31.648Z,99837.56
2022-08-26T12:43:41.810Z,99843.78
2022-08-26T12:46:49.188Z,99844.22
2022-08-26T12:50:25.470Z,99830.69
2022-08-26T12:53:31.046Z,99827.34
2022-08-26T12:56:39.556Z,99827.22
2022-08-26T12:59:42.156Z,99834.72
2022-08-26T13:02:45.156Z,99824.28
2022-08-26T13:05:47.925Z,99812.38
2022-08-26T13:08:59.791Z,99814.78
2022-08-26T13:12:02.443Z,99823.84
2022-08-26T13:15:06.437Z,99813.91
2022-08-26T13:18:09.094Z,99811.41
2022-08-26T13:21:17.629Z,99804.56
2022-08-26T13:24:33.839Z,99811.13
2022-08-26T13:27:36.754Z,99795.06
2022-08-26T13:30:44.425Z,99789.47
2022-08-26T13:33:48.555Z,99795.06
2022-08-26T13:36:54.491Z,99806.00
2022-08-26T13:39:57.571Z,99795.87
2022-08-26T13:43:00.248Z,99791.28
2022-08-26T13:46:03.657Z,99789.16
2022-08-26T13:49:06.465Z,99784.62
2022-08-26T13:52:11.380Z,99780.91
2022-08-26T13:55:14.078Z,99779.75
2022-08-26T13:58:17.332Z,99777.41
2022-08-26T14:01:20.087Z,99780.25
2022-08-26T14:04:27.308Z,99765.22
2022-08-26T14:07:30.148Z,99778.00
2022-08-26T14:10:33.232Z,99770.56
2022-08-26T14:13:36.253Z,99770.66
2022-08-26T14:16:58.726Z,99767.28
2022-08-26T14:20:03.470Z,99753.84
2022-08-26T14:23:14.459Z,99761.28
2022-08-26T14:26:28.361Z,99756.56
2022-08-26T14:29:34.695Z,99761.34
2022-08-26T14:32:41.500Z,99763.66
2022-08-26T14:35:48.806Z,99760.81
2022-08-26T14:38:52.312Z,99758.97
2022-08-26T14:41:56.597Z,99751.22
2022-08-26T14:45:01.988Z,99756.03
2022-08-26T14:48:05.124Z,99758.66
2022-08-26T14:51:07.747Z,99746.19
2022-08-26T14:54:11.807Z,99750.09
2022-08-26T14:57:15.334Z,99748.47
2022-08-26T15:00:21.262Z,99747.25
2022-08-26T15:03:23.847Z,99736.75
2022-08-26T15:06:28.559Z,99744.56
2022-08-26T15:09:34.427Z,99736.59
2022-08-26T15:12:38.617Z,99739.00
2022-08-26T15:15:41.272Z,99739.25
2022-08-26T15:18:44.921Z,99743.53
2022-08-26T15:21:48.009Z,99747.16
2022-08-26T15:24:51.763Z,99714.84
2022-08-26T15:27:56.448Z,99740.06
2022-08-26T15:31:00.509Z,99744.03
2022-08-26T15:34:05.909Z,99742.03
2022-08-26T15:37:09.709Z,99740.16
2022-08-26T15:40:12.426Z,99735.75
2022-08-26T15:43:28.442Z,99734.47
2022-08-26T15:46:32.137Z,99731.94
2022-08-26T15:49:35.307Z,99738.53
2022-08-26T15:52:38.835Z,99729.53
2022-08-26T15:55:41.804Z,99734.56
2022-08-26T15:58:44.727Z,99726.13
2022-08-26T16:01:48.282Z,99728.47
2022-08-26T16:04:51.509Z,99731.31
2022-08-26T16:07:54.211Z,99728.75
2022-08-26T16:10:57.086Z,99724.50
2022-08-26T16:13:59.877Z,99722.38
2022-08-26T16:17:02.871Z,99717.78
2022-08-26T16:20:06.433Z,99713.72
2022-08-26T16:23:09.430Z,99728.66
2022-08-26T16:26:19.319Z,99721.56
2022-08-26T16:29:22.266Z,99718.87
2022-08-26T16:32:29.359Z,99721.13
2022-08-26T16:35:34.128Z,99715.94
2022-08-26T16:38:37.719Z,99701.94
2022-08-26T16:41:40.673Z,99713.06
2022-08-26T16:44:46.305Z,99720.75
2022-08-26T16:47:49.987Z,99721.75
2022-08-26T16:50:55.353Z,99716.72
2022-08-26T16:54:00.864Z,99723.50
2022-08-26T16:57:03.893Z,99701.94
2022-08-26T17:00:12.879Z,99715.53
2022-08-26T17:03:15.844Z,99712.97
2022-08-26T17:06:18.879Z,99705.75
2022-08-26T17:09:21.852Z,99704.19
2022-08-26T17:12:24.879Z,99712.06
2022-08-26T17:15:27.670Z,99701.75
2022-08-26T17:18:30.672Z,99701.94
2022-08-26T17:21:35.456Z,99689.56
2022-08-26T17:24:38.507Z,99681.50
2022-08-26T17:27:41.833Z,99691.75
2022-08-26T17:30:44.859Z,99673.44
2022-08-26T17:33:53.322Z,99695.16
2022-08-26T17:36:57.032Z,99698.66
2022-08-26T17:39:59.654Z,99704.66
2022-08-26T17:43:02.595Z,99702.38
2022-08-26T17:46:07.699Z,99704.97
2022-08-26T17:49:10.837Z,99706.94
2022-08-26T17:52:14.340Z,99700.91
2022-08-26T17:55:18.289Z,99709.72
2022-08-26T17:58:23.774Z,99722.59
2022-08-26T18:01:28.095Z,99724.84
2022-08-26T18:04:31.479Z,99731.56
2022-08-26T18:07:37.717Z,99734.19
2022-08-26T18:10:47.179Z,99733.66
2022-08-26T18:13:49.868Z,99728.44
2022-08-26T18:16:53.356Z,99736.41
2022-08-26T18:19:55.995Z,99727.28
2022-08-26T18:22:58.986Z,99732.06
2022-08-26T18:26:01.696Z,99730.97
2022-08-26T18:29:05.588Z,99722.38
2022-08-26T18:32:08.654Z,99733.31
2022-08-26T18:35:12.472Z,99729.34
2022-08-26T18:38:15.485Z,99733.22
2022-08-26T18:41:21.596Z,99739.41
2022-08-26T18:44:24.524Z,99738.25
2022-08-26T18:47:27.815Z,99737.84
2022-08-26T18:50:30.596Z,99743.63
2022-08-26T18:53:34.488Z,99749.00
2022-08-26T18:56:39.178Z,99738.16
2022-08-26T18:59:42.242Z,99735.25
2022-08-26T19:02:47.057Z,99736.56
2022-08-26T19:05:55.485Z,99735.22
2022-08-26T19:08:58.562Z,99752.19
2022-08-26T19:12:02.552Z,99738.56
2022-08-26T19:15:05.935Z,99740.16
2022-08-26T19:18:10.267Z,99742.22
2022-08-26T19:21:13.305Z,99749.22
2022-08-26T19:24:20.767Z,99745.53
2022-08-26T19:27:23.369Z,99738.56
2022-08-26T19:30:26.429Z,99746.22
2022-08-26T19:33:32.024Z,99746.72
2022-08-26T19:36:35.455Z,99740.13
2022-08-26T19:39:38.882Z,99743.09
2022-08-26T19:42:41.809Z,99746.72
2022-08-26T19:45:44.509Z,99744.84
2022-08-26T19:48:49.238Z,99752.31
2022-08-26T19:51:54.455Z,99741.34
2022-08-26T19:54:58.194Z,99745.53
2022-08-26T19:58:01.056Z,99742.78
2022-08-26T20:01:05.537Z,99738.25
2022-08-26T20:04:08.531Z,99743.56
2022-08-26T20:07:14.256Z,99748.38
2022-08-26T20:10:23.560Z,99743.84
2022-08-26T20:13:26.268Z,99751.81
2022-08-26T20:16:29.214Z,99760.34
2022-08-26T20:19:50.608Z,99761.94
2022-08-26T20:22:54.432Z,99751.84
2022-08-26T20:25:57.479Z,99761.94
2022-08-26T20:29:00.513Z,99773.88
2022-08-26T20:32:06.063Z,99768.62
2022-08-26T20:35:12.411Z,99771.25
2022-08-26T20:38:15.863Z,99758.97
2022-08-26T20:41:22.087Z,99763.66
2022-08-26T20:44:25.438Z,99772.06
2022-08-26T20:47:28.630Z,99776.69
2022-08-26T20:50:33.145Z,99780.72
2022-08-26T20:53:36.220Z,99776.41
2022-08-26T20:56:40.054Z,99770.81
2022-08-26T20:59:43.569Z,99784.28
2022-08-26T21:02:46.354Z,99794.34
2022-08-26T21:08:52.032Z,99784.44
2022-08-26T21:11:55.903Z,99785.97
2022-08-26T21:14:58.551Z,99795.59
2022-08-26T21:18:01.692Z,99794.03
2022-08-26T21:21:09.053Z,99790.59
2022-08-26T21:24:13.123Z,99793.56
2022-08-26T21:27:17.684Z,99788.25
2022-08-26T21:30:29.401Z,99800.81
2022-08-26T21:33:32.610Z,99792.53
2022-08-26T21:36:35.836Z,99798.56
2022-08-26T21:39:38.469Z,99802.44
2022-08-26T21:42:42.767Z,99797.00
2022-08-26T21:45:45.446Z,99797.09
2022-08-26T21:48:58.495Z,99799.75
2022-08-26T21:52:04.584Z,99805.31
2022-08-26T21:55:09.123Z,99806.84
2022-08-26T21:58:14.317Z,99792.12
2022-08-26T22:01:21.103Z,99807.44
2022-08-26T22:04:24.312Z,99805.50
2022-08-26T22:07:26.929Z,99795.47
2022-08-26T22:10:29.939Z,99800.72
2022-08-26T22:13:36.240Z,99800.84
2022-08-26T22:16:39.309Z,99801.16
2022-08-26T22:19:46.055Z,99797.75
2022-08-26T22:22:49.578Z,99790.72
2022-08-26T22:25:52.959Z,99787.28
2022-08-26T22:28:58.596Z,99788.97
2022-08-26T22:32:01.744Z,99785.72
2022-08-26T22:35:28.253Z,99788.50
2022-08-26T22:38:28.636Z,99785.09
2022-08-26T22:41:32.661Z,99780.41
2022-08-26T22:44:37.583Z,99774.19
2022-08-26T22:47:40.982Z,99776.97
2022-08-26T22:50:45.898Z,99774.47
2022-08-26T22:53:49.340Z,99774.59
2022-08-26T22:56:52.000Z,99776.44
2022-08-26T22:59:54.948Z,99769.66
2022-08-26T23:02:58.655Z,99773.88
2022-08-26T23:06:04.607Z,99772.44
2022-08-26T23:09:08.178Z,99782.94
2022-08-26T23:12:11.200Z,99770.69
2022-08-26T23:15:13.994Z,99778.53
2022-08-26T23:18:19.007Z,99778.97
2022-08-26T23:21:21.652Z,99778.53
2022-08-26T23:24:24.551Z,99774.47
2022-08-26T23:27:27.987Z,99767.75
2022-08-26T23:30:33.111Z,99772.03
2022-08-26T23:33:54.544Z,99764.03
2022-08-26T23:37:00.030Z,99766.50
2022-08-26T23:40:06.500Z,99763.13
2022-08-26T23:43:16.371Z,99767.38
2022-08-26T23:46:19.408Z,99764.81
2022-08-26T23:49:22.599Z,99760.06
2022-08-26T23:52:44.099Z,99752.72
2022-08-26T23:55:49.994Z,99739.72
2022-08-26T23:58:52.683Z,99760.50
